Terminal Aerodrome Forecast
Issued by NWS Louisville, KY

Home | Current Version | Previous Version | Text Only | Print | Product List | Glossary On
Versions: 1 2 3 4 5 6 7 8 9 10 11 12
000
FTUS43 KLMK 252320
TAFLEX
TAF
KLEX 252320Z 2600/2624 22004KT P6SM SKC
     FM260900 VRB03KT 5SM BR SKC
      TEMPO 2611/2613 3SM BR
     FM261400 VRB04KT P6SM FEW030=

USA.gov is the U.S. government's official web portal to all federal, state and local government web resources and services.